Time;durP1;ratioP1;P1;durP2;ratioP2;P2;SDS_P1;SDS_P2;PMS_P1;PMS_P2;Temp;Humidity;BMP_temperature;BMP_pressure;BME280_temperature;BME280_humidity;BME280_pressure;Samples;Min_cycle;Max_cycle;Signal;HPM_P1;HPM_P2
2022/03/29 00:02:19;;;;;;;33.00;22.15;;;8.70;88.70;;;;;;5052668;27;98186;-69
2022/03/29 00:04:46;;;;;;;28.58;19.52;;;8.70;88.70;;;;;;5055905;27;95305;-69
2022/03/29 00:07:13;;;;;;;32.80;20.63;;;8.70;88.70;;;;;;5055408;27;101717;-69
2022/03/29 00:09:40;;;;;;;33.47;21.20;;;8.70;89.00;;;;;;5054366;27;92447;-69
2022/03/29 00:12:07;;;;;;;31.70;21.45;;;8.60;89.10;;;;;;5020326;27;95731;-69
2022/03/29 00:14:34;;;;;;;31.52;20.48;;;8.70;89.30;;;;;;5053037;27;95824;-69
2022/03/29 00:17:01;;;;;;;30.33;18.90;;;8.70;89.40;;;;;;5055602;27;92420;-69
2022/03/29 00:19:29;;;;;;;29.58;19.08;;;8.70;89.40;;;;;;5056276;27;91756;-69
2022/03/29 00:21:56;;;;;;;28.50;18.23;;;8.70;89.30;;;;;;5020543;27;95925;-69
2022/03/29 00:24:23;;;;;;;27.98;18.73;;;8.70;89.10;;;;;;5049820;27;94829;-69
2022/03/29 00:26:50;;;;;;;26.65;17.20;;;8.70;89.20;;;;;;5049782;27;95012;-69
2022/03/29 00:29:17;;;;;;;33.08;20.08;;;8.70;89.10;;;;;;5034924;28;92415;-69
2022/03/29 00:31:44;;;;;;;30.35;18.88;;;8.70;88.90;;;;;;5050959;27;96135;-69
2022/03/29 00:34:11;;;;;;;31.30;20.35;;;8.70;88.90;;;;;;5050636;27;92903;-69
2022/03/29 00:36:38;;;;;;;33.95;19.52;;;8.70;88.90;;;;;;5034100;28;92463;-70
2022/03/29 00:39:05;;;;;;;36.47;22.15;;;8.70;88.80;;;;;;5035238;28;92494;-69
2022/03/29 00:41:32;;;;;;;38.75;22.05;;;8.70;88.80;;;;;;5050627;27;93301;-69
2022/03/29 00:43:59;;;;;;;35.75;22.15;;;8.70;88.50;;;;;;5033974;28;92998;-69
2022/03/29 00:46:26;;;;;;;35.10;22.45;;;8.70;88.50;;;;;;5016713;28;92611;-69
2022/03/29 00:48:54;;;;;;;41.90;25.33;;;8.70;88.50;;;;;;5034016;28;92442;-69
2022/03/29 00:51:21;;;;;;;39.60;22.92;;;8.70;88.30;;;;;;5033465;28;99102;-69
2022/03/29 00:53:48;;;;;;;39.30;24.13;;;8.70;88.50;;;;;;5035094;27;95402;-69
2022/03/29 00:56:19;;;;;;;41.10;24.10;;;8.80;88.50;;;;;;5033335;28;92463;-69
2022/03/29 00:58:48;;;;;;;44.40;23.98;;;8.80;88.50;;;;;;5035166;28;92429;-69
2022/03/29 01:01:16;;;;;;;42.00;23.67;;;8.80;88.30;;;;;;5033989;27;106244;-69
2022/03/29 01:03:43;;;;;;;40.55;23.40;;;8.80;88.10;;;;;;5034594;28;92975;-69
2022/03/29 01:06:10;;;;;;;40.03;23.77;;;8.80;88.10;;;;;;5034907;28;92932;-69
2022/03/29 01:08:38;;;;;;;39.13;23.67;;;8.80;87.90;;;;;;5050989;27;91737;-69
2022/03/29 01:11:12;;;;;;;42.22;24.90;;;8.80;88.00;;;;;;5034494;27;93247;-69
2022/03/29 01:13:41;;;;;;;42.78;24.38;;;8.90;88.20;;;;;;5034721;27;93454;-69
2022/03/29 01:18:55;;;;;;;38.90;23.15;;;8.90;87.00;;;;;;5034078;28;92882;-69
2022/03/29 01:21:25;;;;;;;34.83;20.45;;;8.80;87.10;;;;;;5032972;28;93299;-69
2022/03/29 01:23:52;;;;;;;35.55;21.00;;;8.90;87.20;;;;;;5018092;27;98181;-70
2022/03/29 01:26:20;;;;;;;37.88;22.10;;;8.80;86.60;;;;;;5018341;28;92469;-69
2022/03/29 01:28:47;;;;;;;37.45;22.08;;;8.80;86.80;;;;;;5038288;28;92459;-69
2022/03/29 01:31:15;;;;;;;38.00;22.00;;;8.80;87.00;;;;;;5037865;27;93173;-69
2022/03/29 01:33:42;;;;;;;34.55;21.33;;;8.90;87.00;;;;;;5038385;27;93540;-69
2022/03/29 01:36:09;;;;;;;41.67;23.25;;;8.90;86.40;;;;;;5053767;27;92810;-69
2022/03/29 01:38:36;;;;;;;40.60;24.83;;;8.90;86.30;;;;;;5037945;28;92426;-69
2022/03/29 01:41:05;;;;;;;36.40;21.83;;;9.00;86.10;;;;;;5036592;27;95577;-69
2022/03/29 01:43:33;;;;;;;39.00;22.58;;;9.00;85.90;;;;;;5053014;27;97955;-69
2022/03/29 01:46:00;;;;;;;34.42;22.13;;;9.00;85.80;;;;;;5019802;28;92534;-69
2022/03/29 01:48:28;;;;;;;39.72;22.58;;;9.00;85.70;;;;;;5037179;27;93984;-69
2022/03/29 01:50:55;;;;;;;35.40;20.50;;;9.00;85.80;;;;;;5037744;27;93230;-70
2022/03/29 01:53:24;;;;;;;36.20;21.95;;;9.00;85.60;;;;;;5035792;28;95620;-71
2022/03/29 01:55:59;;;;;;;35.70;22.15;;;8.90;85.40;;;;;;5037587;28;93394;-70
2022/03/29 01:58:29;;;;;;;33.20;21.55;;;9.00;85.60;;;;;;5037018;28;92276;-70
2022/03/29 02:00:57;;;;;;;36.22;22.75;;;9.00;85.60;;;;;;5037041;27;93285;-70
2022/03/29 02:03:24;;;;;;;32.63;20.90;;;9.00;85.50;;;;;;5037046;27;93039;-70
2022/03/29 02:05:52;;;;;;;37.97;23.45;;;9.10;85.30;;;;;;5035240;28;94880;-70
2022/03/29 02:08:20;;;;;;;35.33;22.48;;;9.10;85.10;;;;;;5019492;28;92879;-70
2022/03/29 02:10:47;;;;;;;39.72;22.23;;;9.20;85.20;;;;;;5002858;28;95709;-70
2022/03/29 02:13:14;;;;;;;34.50;22.05;;;9.10;85.00;;;;;;5037412;27;93149;-70
2022/03/29 02:15:41;;;;;;;33.38;20.80;;;9.20;85.20;;;;;;5036966;27;92472;-70
2022/03/29 02:18:08;;;;;;;36.78;21.67;;;9.20;85.10;;;;;;5035948;28;100840;-70
2022/03/29 02:20:35;;;;;;;31.80;20.27;;;9.20;84.90;;;;;;5037105;27;93248;-70
2022/03/29 02:23:04;;;;;;;35.30;21.75;;;9.30;84.70;;;;;;5036225;28;95524;-70
2022/03/29 02:25:31;;;;;;;36.45;22.58;;;9.30;84.40;;;;;;5035418;28;92650;-70
2022/03/29 02:27:58;;;;;;;36.78;22.65;;;9.30;84.20;;;;;;5036109;27;92481;-70
2022/03/29 02:30:25;;;;;;;36.17;22.15;;;9.20;84.80;;;;;;5035586;27;95657;-70
2022/03/29 02:32:53;;;;;;;37.85;22.40;;;9.20;84.70;;;;;;5052694;27;95466;-70
2022/03/29 02:35:20;;;;;;;35.92;21.98;;;9.20;84.70;;;;;;5052788;27;92486;-70
2022/03/29 02:37:47;;;;;;;37.85;23.02;;;9.20;84.80;;;;;;5034582;28;92466;-70
2022/03/29 02:40:14;;;;;;;36.53;22.58;;;9.10;85.30;;;;;;5018942;28;95781;-71
2022/03/29 02:42:46;;;;;;;35.05;21.92;;;9.10;85.10;;;;;;5052119;27;93110;-70
2022/03/29 02:45:18;;;;;;;36.25;21.70;;;9.20;85.00;;;;;;5036826;27;92417;-70
2022/03/29 02:47:48;;;;;;;31.95;20.58;;;9.10;85.00;;;;;;5052739;27;91700;-70
2022/03/29 02:50:16;;;;;;;34.10;20.98;;;9.10;85.30;;;;;;5052350;27;95877;-70
2022/03/29 02:52:48;;;;;;;35.42;20.08;;;9.20;85.30;;;;;;5035320;28;92590;-70
2022/03/29 02:55:18;;;;;;;30.60;19.73;;;9.20;85.30;;;;;;5035631;27;94862;-70
2022/03/29 02:57:46;;;;;;;28.35;17.50;;;9.20;85.30;;;;;;5036593;27;92382;-70
2022/03/29 03:00:17;;;;;;;28.27;17.42;;;9.30;85.10;;;;;;5036524;27;93869;-70
2022/03/29 03:02:45;;;;;;;27.20;18.05;;;9.30;85.00;;;;;;5018270;28;95538;-70
2022/03/29 03:05:12;;;;;;;29.45;19.13;;;9.30;85.10;;;;;;5036463;27;92888;-70
2022/03/29 03:07:42;;;;;;;32.55;18.08;;;9.30;85.10;;;;;;5051491;27;92503;-70
2022/03/29 03:10:10;;;;;;;32.13;17.90;;;9.30;85.00;;;;;;5036279;28;94082;-70
2022/03/29 03:12:45;;;;;;;27.58;18.15;;;9.40;84.80;;;;;;5051461;27;111110;-70
2022/03/29 03:15:15;;;;;;;28.08;17.60;;;9.40;85.00;;;;;;5036653;27;92497;-70
2022/03/29 03:17:42;;;;;;;28.00;17.40;;;9.30;85.20;;;;;;5051960;27;92650;-71
2022/03/29 03:20:11;;;;;;;27.02;17.90;;;9.30;85.30;;;;;;5034971;27;95572;-70
2022/03/29 03:22:39;;;;;;;26.75;17.55;;;9.30;85.50;;;;;;5034811;28;95396;-70
2022/03/29 03:25:07;;;;;;;26.13;18.17;;;9.20;85.50;;;;;;5051588;27;92957;-70
2022/03/29 03:27:34;;;;;;;24.63;15.65;;;9.20;85.60;;;;;;5056460;27;92420;-70
2022/03/29 03:30:04;;;;;;;27.67;18.27;;;9.10;86.00;;;;;;5056571;27;93259;-71
2022/03/29 03:32:31;;;;;;;31.02;19.23;;;9.00;86.20;;;;;;5054455;27;95770;-70
2022/03/29 03:34:58;;;;;;;30.45;18.25;;;9.00;86.40;;;;;;5021516;27;92489;-71
2022/03/29 03:37:26;;;;;;;32.08;18.63;;;8.90;86.80;;;;;;5055425;27;91819;-70
2022/03/29 03:39:53;;;;;;;25.90;16.70;;;8.90;86.80;;;;;;5037682;27;95691;-70
2022/03/29 03:42:21;;;;;;;31.90;17.92;;;8.90;87.10;;;;;;5038003;27;100995;-70
2022/03/29 03:44:48;;;;;;;31.48;19.35;;;8.80;87.10;;;;;;5053640;27;94888;-70
2022/03/29 03:47:15;;;;;;;29.23;17.50;;;8.80;87.30;;;;;;5056328;27;92811;-71
2022/03/29 03:49:42;;;;;;;30.42;18.88;;;8.80;87.10;;;;;;5055686;27;92925;-70
2022/03/29 03:52:09;;;;;;;32.95;20.10;;;8.80;87.30;;;;;;5054924;27;92763;-71
2022/03/29 03:54:37;;;;;;;33.47;19.75;;;8.80;87.20;;;;;;5056097;27;92466;-70
2022/03/29 03:57:05;;;;;;;36.97;21.52;;;8.80;87.20;;;;;;5054430;27;92622;-70
2022/03/29 03:59:33;;;;;;;32.90;19.65;;;8.80;87.10;;;;;;5054585;27;94752;-70
2022/03/29 04:02:00;;;;;;;31.75;19.50;;;8.80;87.10;;;;;;5054832;27;97996;-70
2022/03/29 04:04:27;;;;;;;32.95;21.48;;;8.80;87.10;;;;;;5055933;27;92560;-70
2022/03/29 04:06:54;;;;;;;33.60;18.95;;;8.80;87.10;;;;;;5054203;27;101249;-70
2022/03/29 04:09:21;;;;;;;35.10;20.65;;;8.80;87.20;;;;;;5053057;27;98082;-70
2022/03/29 04:11:48;;;;;;;36.78;21.40;;;8.70;87.10;;;;;;5053999;27;98131;-70
2022/03/29 04:14:16;;;;;;;39.33;22.05;;;8.70;87.30;;;;;;5054574;27;92562;-70
2022/03/29 04:16:43;;;;;;;35.40;21.83;;;8.80;87.30;;;;;;5055745;27;92450;-70
2022/03/29 04:19:10;;;;;;;35.92;21.83;;;8.70;87.20;;;;;;5036982;27;95726;-70
2022/03/29 04:21:37;;;;;;;33.78;21.20;;;8.70;87.30;;;;;;5020300;27;95526;-70
2022/03/29 04:24:05;;;;;;;36.35;23.35;;;8.70;87.00;;;;;;5053541;27;95210;-70
2022/03/29 04:26:32;;;;;;;33.83;22.63;;;8.70;87.70;;;;;;5056425;27;92147;-70
2022/03/29 04:28:59;;;;;;;36.20;21.65;;;8.70;87.40;;;;;;5055006;27;93298;-70
2022/03/29 04:31:26;;;;;;;38.60;20.88;;;8.70;87.30;;;;;;5037427;27;92964;-70
2022/03/29 04:33:53;;;;;;;36.90;21.48;;;8.60;87.40;;;;;;5036028;27;94859;-70
2022/03/29 04:36:20;;;;;;;37.63;23.45;;;8.60;87.60;;;;;;5055093;27;103534;-70
2022/03/29 04:38:47;;;;;;;38.35;22.20;;;8.70;87.60;;;;;;5037133;27;93305;-70
2022/03/29 04:41:14;;;;;;;36.38;21.63;;;8.70;87.50;;;;;;5055268;27;93143;-70
2022/03/29 04:43:41;;;;;;;34.15;21.95;;;8.70;87.40;;;;;;5054160;27;92515;-70
2022/03/29 04:46:08;;;;;;;35.75;21.27;;;8.70;87.60;;;;;;5055371;27;92597;-70
2022/03/29 04:48:35;;;;;;;42.45;24.45;;;8.70;87.60;;;;;;5055399;27;93136;-70
2022/03/29 04:51:02;;;;;;;39.05;22.95;;;8.70;87.50;;;;;;5055383;27;93162;-70
2022/03/29 04:53:29;;;;;;;35.85;22.45;;;8.70;87.60;;;;;;5053684;27;92466;-70
2022/03/29 04:55:56;;;;;;;40.22;24.60;;;8.70;87.40;;;;;;5055242;27;92683;-70
2022/03/29 04:58:24;;;;;;;42.75;24.00;;;8.60;88.20;;;;;;5053799;27;97840;-70
2022/03/29 05:00:51;;;;;;;43.78;25.25;;;8.60;87.90;;;;;;5021280;27;98282;-70
2022/03/29 05:03:19;;;;;;;40.42;23.98;;;8.70;88.10;;;;;;5059027;27;92685;-70
2022/03/29 05:05:46;;;;;;;45.25;26.40;;;8.70;88.10;;;;;;5023527;27;92396;-70
2022/03/29 05:08:13;;;;;;;41.70;25.30;;;8.70;87.90;;;;;;5057005;27;103587;-70
2022/03/29 05:10:39;;;;;;;43.50;24.77;;;8.80;87.50;;;;;;5058433;27;93082;-70
2022/03/29 05:13:07;;;;;;;47.97;27.65;;;8.80;87.50;;;;;;5023452;27;92592;-70
2022/03/29 05:15:35;;;;;;;45.97;27.60;;;8.70;87.50;;;;;;5059021;27;91636;-70
2022/03/29 05:18:02;;;;;;;48.45;28.95;;;8.70;87.50;;;;;;5023398;27;94209;-70
2022/03/29 05:20:29;;;;;;;48.47;27.67;;;8.80;87.60;;;;;;5056805;27;95509;-70
2022/03/29 05:22:56;;;;;;;48.38;28.45;;;8.80;87.50;;;;;;5038834;27;94894;-70
2022/03/29 05:25:25;;;;;;;50.55;27.83;;;8.80;88.00;;;;;;5058126;27;92437;-71
2022/03/29 05:27:53;;;;;;;51.05;28.98;;;8.80;87.30;;;;;;5047383;27;94384;-70
2022/03/29 05:30:21;;;;;;;44.42;26.88;;;8.80;87.20;;;;;;5038097;27;93359;-70
2022/03/29 05:32:51;;;;;;;51.78;30.63;;;8.80;87.10;;;;;;5019352;28;104945;-71
2022/03/29 05:35:18;;;;;;;49.85;29.00;;;8.80;87.20;;;;;;5020189;28;93339;-70
2022/03/29 05:37:45;;;;;;;43.88;25.73;;;8.80;87.20;;;;;;5037849;28;93434;-70
2022/03/29 05:40:13;;;;;;;43.25;25.95;;;8.80;87.40;;;;;;5038223;28;95590;-70
2022/03/29 05:42:41;;;;;;;52.83;27.25;;;8.80;87.10;;;;;;5019616;28;92372;-70
2022/03/29 05:45:09;;;;;;;44.15;27.35;;;8.80;87.10;;;;;;5019149;28;92637;-70
2022/03/29 05:50:24;;;;;;;52.78;27.83;;;8.90;87.00;;;;;;5037692;28;95483;-70
2022/03/29 05:52:51;;;;;;;49.95;27.90;;;8.90;86.60;;;;;;5037548;28;92368;-70
2022/03/29 05:55:18;;;;;;;50.85;27.15;;;9.00;86.50;;;;;;5019748;28;92581;-70
2022/03/29 05:57:48;;;;;;;54.45;29.80;;;9.00;86.50;;;;;;5019162;28;95839;-71
2022/03/29 06:00:17;;;;;;;57.53;30.88;;;9.00;86.40;;;;;;5037466;28;93183;-71
2022/03/29 06:02:44;;;;;;;50.83;29.65;;;9.00;86.40;;;;;;5037428;27;92478;-71
2022/03/29 06:05:11;;;;;;;45.90;27.95;;;9.00;86.40;;;;;;5019717;28;91796;-70
2022/03/29 06:07:38;;;;;;;49.58;27.75;;;9.10;86.50;;;;;;5019618;28;93235;-71
2022/03/29 06:10:06;;;;;;;48.63;29.13;;;9.10;86.40;;;;;;5018961;28;102855;-70
2022/03/29 06:12:36;;;;;;;46.17;27.83;;;9.20;86.30;;;;;;5018061;28;95257;-71
2022/03/29 06:15:05;;;;;;;49.88;28.45;;;9.20;86.40;;;;;;5018709;27;92504;-70
2022/03/29 06:17:32;;;;;;;48.10;28.55;;;9.30;86.30;;;;;;5035751;28;97841;-71
2022/03/29 06:20:01;;;;;;;44.55;26.92;;;9.30;86.10;;;;;;5018596;28;94729;-71
2022/03/29 06:22:28;;;;;;;49.15;27.98;;;9.40;85.70;;;;;;5019059;28;92431;-71
2022/03/29 06:24:55;;;;;;;48.30;28.38;;;9.40;85.60;;;;;;5036758;28;92482;-71
2022/03/29 06:27:22;;;;;;;46.28;27.45;;;9.40;85.20;;;;;;5019172;28;93223;-71
2022/03/29 06:29:50;;;;;;;47.35;26.48;;;9.40;85.10;;;;;;5037140;28;93095;-71
2022/03/29 06:32:18;;;;;;;46.38;26.85;;;9.40;84.80;;;;;;5019022;28;92667;-70
2022/03/29 06:34:45;;;;;;;42.53;26.13;;;9.50;85.00;;;;;;5037247;28;92413;-71
2022/03/29 06:37:12;;;;;;;45.30;26.65;;;9.50;84.80;;;;;;5017151;28;98162;-70
2022/03/29 06:39:39;;;;;;;47.70;28.15;;;9.50;84.80;;;;;;5035384;28;98093;-70
2022/03/29 06:42:06;;;;;;;44.63;26.38;;;9.60;84.60;;;;;;5036695;28;92420;-70
2022/03/29 06:44:34;;;;;;;46.20;26.30;;;9.70;84.80;;;;;;5035694;28;92527;-70
2022/03/29 06:47:02;;;;;;;42.65;25.33;;;9.80;84.40;;;;;;5018315;28;96014;-71
2022/03/29 06:49:29;;;;;;;41.85;26.92;;;9.90;84.00;;;;;;5036773;28;93145;-70
2022/03/29 06:51:56;;;;;;;44.03;24.55;;;9.90;84.00;;;;;;5036802;28;92433;-71
2022/03/29 06:54:23;;;;;;;39.90;24.25;;;10.00;83.80;;;;;;5018901;28;92155;-70
2022/03/29 06:56:50;;;;;;;44.25;24.70;;;10.00;83.20;;;;;;5036396;28;93299;-71
2022/03/29 06:59:20;;;;;;;45.88;24.85;;;10.00;82.80;;;;;;5018394;28;93022;-71
2022/03/29 07:02:13;;;;;;;41.72;24.75;;;10.00;83.00;;;;;;5016907;28;94866;-71
2022/03/29 07:04:41;;;;;;;41.78;24.42;;;10.10;83.20;;;;;;5018403;28;92794;-71
2022/03/29 07:07:08;;;;;;;36.17;24.75;;;10.10;82.70;;;;;;5035760;28;97180;-71
2022/03/29 07:12:21;;;;;;;41.67;25.10;;;10.30;83.00;;;;;;5036403;28;92481;-71
2022/03/29 07:14:49;;;;;;;40.35;24.20;;;10.40;82.40;;;;;;5018898;28;92954;-70
2022/03/29 07:17:17;;;;;;;40.95;23.13;;;10.50;82.20;;;;;;5034801;27;93391;-71
2022/03/29 07:19:46;;;;;;;38.83;22.45;;;10.60;82.00;;;;;;5036460;28;91914;-71
2022/03/29 07:22:13;;;;;;;37.75;24.27;;;10.70;81.70;;;;;;5036216;28;92429;-71
2022/03/29 07:24:40;;;;;;;37.03;23.48;;;10.70;81.30;;;;;;5035407;27;92478;-71
2022/03/29 07:27:08;;;;;;;36.13;23.60;;;10.80;81.10;;;;;;5034648;28;95672;-71
2022/03/29 07:29:36;;;;;;;41.00;24.20;;;10.90;81.10;;;;;;5036019;28;95556;-71
2022/03/29 07:32:03;;;;;;;36.15;22.98;;;11.00;80.70;;;;;;5000970;28;102164;-70
2022/03/29 07:34:35;;;;;;;41.20;25.15;;;11.10;80.30;;;;;;5034969;28;92611;-71
2022/03/29 07:37:03;;;;;;;42.95;24.98;;;11.10;80.10;;;;;;5017821;28;95975;-71
2022/03/29 07:39:30;;;;;;;37.95;22.98;;;11.20;79.80;;;;;;5017946;28;95533;-71
2022/03/29 07:41:57;;;;;;;40.30;23.00;;;11.30;79.60;;;;;;5036186;28;92437;-70
2022/03/29 07:44:25;;;;;;;36.53;23.48;;;11.30;79.00;;;;;;5036232;28;91694;-71
2022/03/29 07:46:52;;;;;;;40.42;22.95;;;11.40;79.30;;;;;;5017700;28;93238;-71
2022/03/29 07:49:19;;;;;;;36.72;22.70;;;11.50;79.00;;;;;;5000900;28;95949;-71
2022/03/29 07:52:06;;;;;;;34.58;22.92;;;11.60;78.50;;;;;;5019738;28;95529;-71
2022/03/29 07:54:33;;;;;;;39.42;22.17;;;11.60;78.10;;;;;;5036047;28;92476;-71
2022/03/29 07:57:00;;;;;;;36.22;23.13;;;11.60;78.00;;;;;;5035688;28;93300;-71
2022/03/29 07:59:26;;;;;;;40.05;23.25;;;11.60;77.80;;;;;;5035422;28;93059;-71
2022/03/29 08:01:54;;;;;;;41.83;22.30;;;11.70;77.70;;;;;;5035777;28;92790;-70
2022/03/29 08:04:21;;;;;;;45.78;26.27;;;11.70;77.10;;;;;;5035135;28;101371;-70
2022/03/29 08:06:48;;;;;;;39.72;25.42;;;11.60;76.70;;;;;;5017719;28;93091;-71
2022/03/29 08:09:15;;;;;;;38.53;23.52;;;11.60;77.30;;;;;;5035735;28;93003;-71
2022/03/29 08:11:42;;;;;;;43.50;25.60;;;11.70;76.30;;;;;;5017618;28;92867;-71
2022/03/29 08:14:11;;;;;;;43.28;24.90;;;11.70;76.50;;;;;;5016976;28;92522;-71
2022/03/29 08:16:38;;;;;;;41.78;24.75;;;11.60;76.60;;;;;;5016073;28;98189;-71
2022/03/29 08:19:05;;;;;;;44.88;24.77;;;11.60;76.90;;;;;;5035436;28;95465;-71
2022/03/29 08:21:49;;;;;;;37.60;23.50;;;11.60;77.10;;;;;;5017322;28;92451;-71
2022/03/29 08:24:25;;;;;;;36.90;21.73;;;11.60;77.10;;;;;;5019708;28;93039;-71
2022/03/29 08:26:54;;;;;;;35.72;22.77;;;11.60;78.00;;;;;;5035340;28;93163;-71
2022/03/29 08:29:27;;;;;;;42.58;24.50;;;11.50;77.50;;;;;;5033916;28;92983;-71
2022/03/29 08:31:54;;;;;;;40.15;22.48;;;11.50;77.40;;;;;;5017240;28;92469;-71
2022/03/29 08:34:21;;;;;;;34.83;20.77;;;11.40;77.40;;;;;;5017130;27;94144;-71
2022/03/29 08:36:50;;;;;;;28.83;20.70;;;11.30;77.30;;;;;;5034105;28;95923;-70
2022/03/29 08:39:17;;;;;;;34.63;19.83;;;11.30;77.60;;;;;;5034735;28;93200;-70
2022/03/29 08:41:55;;;;;;;32.40;19.77;;;11.30;77.70;;;;;;5015813;28;95089;-71
2022/03/29 08:44:25;;;;;;;34.03;19.58;;;11.40;77.50;;;;;;5033571;28;92555;-71
2022/03/29 08:46:52;;;;;;;27.73;17.17;;;11.40;77.10;;;;;;5035055;28;93247;-70
2022/03/29 08:49:20;;;;;;;27.73;16.23;;;11.40;77.30;;;;;;5034670;28;93144;-70
2022/03/29 08:51:49;;;;;;;31.20;17.92;;;11.40;76.90;;;;;;5035044;28;92427;-70
2022/03/29 08:54:17;;;;;;;36.67;18.90;;;11.40;77.40;;;;;;5016917;28;92527;-70
2022/03/29 08:56:43;;;;;;;30.20;18.15;;;11.50;77.40;;;;;;5034972;28;92982;-73
2022/03/29 08:59:10;;;;;;;38.60;20.25;;;11.60;77.30;;;;;;5035223;28;93094;-70
2022/03/29 09:01:37;;;;;;;35.38;19.95;;;11.70;76.70;;;;;;5016616;28;92923;-70
2022/03/29 09:04:07;;;;;;;33.72;19.92;;;11.80;76.40;;;;;;5016544;28;92466;-70
2022/03/29 09:06:55;;;;;;;32.85;19.52;;;11.80;75.90;;;;;;5015030;28;98218;-71
2022/03/29 09:09:26;;;;;;;28.83;18.35;;;11.80;75.70;;;;;;5032923;28;97978;-71
2022/03/29 09:11:56;;;;;;;31.85;18.38;;;11.70;76.20;;;;;;5033421;28;92471;-70
2022/03/29 09:14:25;;;;;;;33.00;19.00;;;11.80;76.40;;;;;;5033728;28;103917;-70
2022/03/29 09:16:52;;;;;;;31.25;19.90;;;11.70;76.10;;;;;;5034729;28;93438;-71
2022/03/29 09:19:23;;;;;;;37.15;21.05;;;11.80;76.60;;;;;;5034377;28;93078;-71
2022/03/29 09:21:53;;;;;;;29.63;19.67;;;11.80;76.40;;;;;;5017229;28;92425;-71
2022/03/29 09:24:21;;;;;;;32.33;20.27;;;11.80;76.10;;;;;;5034571;27;91670;-70
2022/03/29 09:26:51;;;;;;;32.53;19.80;;;11.70;76.30;;;;;;5034321;28;93283;-70
2022/03/29 09:29:20;;;;;;;35.58;19.52;;;11.70;76.50;;;;;;5015989;28;96379;-71
2022/03/29 09:32:14;;;;;;;30.13;18.75;;;11.60;76.70;;;;;;5033667;28;94775;-71
2022/03/29 09:34:41;;;;;;;32.15;19.52;;;11.70;76.70;;;;;;5034627;28;92426;-71
2022/03/29 09:37:08;;;;;;;35.83;20.58;;;11.70;76.60;;;;;;5034605;28;93111;-71
2022/03/29 09:39:39;;;;;;;34.28;20.38;;;11.80;76.40;;;;;;5034103;28;92377;-70
2022/03/29 09:42:13;;;;;;;36.53;18.83;;;11.90;76.50;;;;;;5034597;27;92433;-71
2022/03/29 09:44:45;;;;;;;29.13;19.27;;;12.00;75.80;;;;;;5017265;28;92377;-71
2022/03/29 09:47:15;;;;;;;31.23;20.40;;;12.10;75.40;;;;;;5035814;28;93291;-71
2022/03/29 09:49:55;;;;;;;32.65;20.25;;;12.30;75.50;;;;;;5037525;28;93191;-71
2022/03/29 09:52:26;;;;;;;30.38;19.52;;;12.50;74.80;;;;;;5019739;28;92531;-71
2022/03/29 09:55:07;;;;;;;33.85;19.73;;;12.70;74.30;;;;;;5038142;28;92478;-71
2022/03/29 09:57:39;;;;;;;26.67;16.48;;;12.90;73.70;;;;;;5036025;28;95689;-70
2022/03/29 10:00:08;;;;;;;32.97;18.05;;;12.90;72.70;;;;;;5037623;28;95566;-71
2022/03/29 10:02:44;;;;;;;31.10;19.42;;;12.90;72.10;;;;;;5034112;28;92542;-70
2022/03/29 10:05:13;;;;;;;31.17;18.45;;;13.00;72.00;;;;;;5020233;28;92482;-71
2022/03/29 10:07:49;;;;;;;27.38;17.05;;;13.20;71.70;;;;;;5036585;28;110501;-71
2022/03/29 10:10:17;;;;;;;26.48;17.88;;;13.20;71.20;;;;;;5037643;28;92398;-71
2022/03/29 10:12:44;;;;;;;27.13;17.63;;;13.10;72.00;;;;;;5018728;28;92632;-70
2022/03/29 10:15:31;;;;;;;26.63;16.33;;;13.10;71.80;;;;;;5037979;28;91731;-70
2022/03/29 10:17:59;;;;;;;34.08;17.38;;;13.20;72.30;;;;;;5037221;28;92534;-70
2022/03/29 10:20:28;;;;;;;30.77;16.83;;;13.20;71.10;;;;;;5037153;28;92989;-71
2022/03/29 10:22:57;;;;;;;28.45;17.33;;;13.40;71.60;;;;;;5017560;28;100972;-70
2022/03/29 10:25:26;;;;;;;25.90;15.20;;;13.70;70.20;;;;;;5035799;28;93017;-71
2022/03/29 10:27:54;;;;;;;25.30;15.52;;;13.90;68.50;;;;;;5035783;28;92438;-71
2022/03/29 10:30:35;;;;;;;20.25;14.10;;;14.10;68.30;;;;;;5035676;27;94076;-70
2022/03/29 10:33:24;;;;;;;26.20;15.20;;;14.30;66.10;;;;;;5019065;28;92536;-71
2022/03/29 10:36:03;;;;;;;27.02;15.30;;;14.40;65.50;;;;;;5036152;28;92489;-71
2022/03/29 10:38:48;;;;;;;21.73;15.07;;;14.70;65.50;;;;;;5018654;28;93084;-71
2022/03/29 10:41:27;;;;;;;26.10;14.57;;;15.00;64.70;;;;;;5037390;28;94945;-71
2022/03/29 10:44:04;;;;;;;26.17;15.07;;;15.30;63.70;;;;;;5035315;28;92589;-71
2022/03/29 10:46:45;;;;;;;22.88;14.38;;;15.30;62.90;;;;;;5035614;28;92469;-71
2022/03/29 10:49:25;;;;;;;26.55;14.57;;;15.10;63.10;;;;;;5035620;28;95651;-71
2022/03/29 10:52:05;;;;;;;23.77;13.50;;;15.20;63.40;;;;;;5018629;28;95472;-70
2022/03/29 10:54:37;;;;;;;23.52;12.45;;;15.10;63.50;;;;;;5018706;28;92512;-71
2022/03/29 10:57:06;;;;;;;20.05;12.15;;;15.00;63.30;;;;;;5018478;28;92535;-71
2022/03/29 10:59:37;;;;;;;20.50;11.38;;;14.90;63.20;;;;;;5033922;27;95954;-71
2022/03/29 11:02:11;;;;;;;24.27;12.15;;;14.80;63.40;;;;;;5035585;28;96135;-71
2022/03/29 11:04:57;;;;;;;;;;;14.60;64.30;;;;;;5018750;28;92462;-71
2022/03/29 11:07:24;;;;;;;19.33;10.77;;;14.30;64.70;;;;;;5038851;28;91728;-70
2022/03/29 11:10:11;;;;;;;22.13;11.55;;;14.30;65.00;;;;;;5018122;28;93209;-71
2022/03/29 11:12:49;;;;;;;23.17;11.50;;;14.30;65.20;;;;;;5036498;28;93024;-71
2022/03/29 11:15:32;;;;;;;19.80;11.25;;;14.30;65.10;;;;;;5033716;28;94943;-71
2022/03/29 11:18:01;;;;;;;21.30;11.18;;;14.30;64.40;;;;;;5018627;28;93066;-71
2022/03/29 11:20:38;;;;;;;26.50;12.50;;;14.30;64.50;;;;;;5036189;28;93140;-70
2022/03/29 11:23:09;;;;;;;21.90;12.77;;;14.30;64.30;;;;;;5035074;27;93206;-70
2022/03/29 11:25:50;;;;;;;23.67;11.35;;;14.50;64.30;;;;;;5034331;28;92400;-71
2022/03/29 11:28:21;;;;;;;23.77;12.15;;;14.60;64.10;;;;;;5035078;28;92530;-71
2022/03/29 11:30:54;;;;;;;24.27;12.35;;;14.50;63.50;;;;;;5017601;28;95957;-71
2022/03/29 11:33:31;;;;;;;18.98;10.95;;;14.70;63.40;;;;;;5036611;28;92867;-70
2022/03/29 11:35:58;;;;;;;24.92;12.05;;;14.60;63.00;;;;;;5036183;28;92428;-71
2022/03/29 11:38:26;;;;;;;24.17;9.95;;;14.60;64.00;;;;;;5035706;28;98249;-70
2022/03/29 11:40:53;;;;;;;17.33;10.15;;;14.50;63.30;;;;;;5035000;28;95683;-70
2022/03/29 11:43:24;;;;;;;20.48;10.25;;;14.30;63.20;;;;;;5035870;28;95343;-70
2022/03/29 11:45:53;;;;;;;23.40;10.50;;;14.30;63.70;;;;;;5036223;28;93201;-70
2022/03/29 11:48:24;;;;;;;24.15;9.57;;;14.30;63.80;;;;;;5034539;28;92544;-70
2022/03/29 11:51:00;;;;;;;18.05;9.60;;;14.10;63.90;;;;;;5036452;28;93312;-70
2022/03/29 11:53:28;;;;;;;22.20;11.25;;;14.00;64.00;;;;;;5034990;28;95728;-70
2022/03/29 11:56:01;;;;;;;21.25;10.05;;;13.80;64.90;;;;;;5034082;28;92524;-71
2022/03/29 11:58:38;;;;;;;20.55;10.50;;;14.00;65.10;;;;;;5036286;28;91735;-71
2022/03/29 12:01:11;;;;;;;24.65;10.05;;;14.20;64.50;;;;;;5034406;28;93133;-70
2022/03/29 12:03:41;;;;;;;17.13;9.30;;;14.20;64.30;;;;;;5017508;28;93124;-70
2022/03/29 12:06:17;;;;;;;22.17;9.30;;;14.20;63.60;;;;;;5035250;28;94823;-70
2022/03/29 12:08:51;;;;;;;18.85;8.48;;;14.20;64.20;;;;;;5017926;28;92541;-70
2022/03/29 12:11:33;;;;;;;20.42;11.18;;;14.20;64.00;;;;;;5036035;28;92551;-70
2022/03/29 12:14:12;;;;;;;14.60;8.95;;;14.10;63.70;;;;;;5035112;28;93107;-70
2022/03/29 12:16:44;;;;;;;16.60;8.90;;;14.00;64.40;;;;;;5036401;28;92470;-70
2022/03/29 12:19:22;;;;;;;21.25;9.15;;;14.00;65.50;;;;;;5036274;28;92407;-70
2022/03/29 12:21:51;;;;;;;19.15;9.75;;;14.10;64.40;;;;;;5017231;28;95852;-70
2022/03/29 12:24:25;;;;;;;16.77;8.60;;;14.20;64.10;;;;;;5035857;28;92727;-70
2022/03/29 12:26:57;;;;;;;22.05;10.95;;;14.20;64.40;;;;;;5001112;28;92594;-71
2022/03/29 12:29:25;;;;;;;20.50;9.02;;;14.20;64.10;;;;;;5034297;28;92515;-70
2022/03/29 12:31:54;;;;;;;22.35;9.68;;;14.20;64.30;;;;;;5033965;28;106114;-70
2022/03/29 12:34:26;;;;;;;21.20;9.63;;;14.40;64.10;;;;;;5017484;28;94232;-70
2022/03/29 12:36:56;;;;;;;21.80;7.80;;;14.50;63.60;;;;;;5034660;28;92431;-70
2022/03/29 12:39:24;;;;;;;18.15;9.80;;;14.40;63.70;;;;;;5036013;28;92419;-70
2022/03/29 12:41:53;;;;;;;20.00;8.88;;;14.20;63.70;;;;;;5035415;28;93211;-71
2022/03/29 12:44:43;;;;;;;20.60;10.00;;;14.20;63.50;;;;;;5034208;28;95523;-71
2022/03/29 12:47:11;;;;;;;21.13;9.50;;;14.30;63.40;;;;;;5035388;28;92622;-71
2022/03/29 12:49:39;;;;;;;20.33;8.35;;;14.40;64.10;;;;;;5036057;28;91817;-71
2022/03/29 12:52:10;;;;;;;17.92;8.68;;;14.60;63.10;;;;;;5035102;28;93186;-71
2022/03/29 12:54:38;;;;;;;19.83;8.30;;;14.60;62.80;;;;;;5035628;28;93073;-70